Disclaimer

Please do not use the information listed here in-flight or in-navigation, as they are not provided to us by the airports but are provided by volunteers, so they might be outdated.

Search


Regions


Airport information page

Radio informations:
Aerodrome flight information system (AFIS) - 121.8 MHz

Airport informations:
Latitude: 30° 42' 01.72" N
Longitude: 051° 32' 42.34" E
Elevation: 5939 feet - 1810 meters
Operating hours: From sunrise to sunset (SR-SS)
Operating agency: Civil government, landing fees and diplomatic clearance may be required
Timezone: UTC+3:30
Fuel: Jet A1, without icing nhibitor.

Runway information:
13/31 - 8522 x 148 feet< - >2598 x 45 meters

Recent METARs:
OISY 180600Z 00000KT CAVOK 08/03 Q1026
OISY 180600Z 00000KT CAVOK 08/03 Q1026
OISY 180700Z 00000KT CAVOK 10/02 Q1026

Airport on the map: